YPPF weather

Adelaide Parafield Airport
Adelaide, South Australia, Australia

Public forecast

Using degrees Celsius for public forecast. Weather courtesy of forecast.io.

METAR (pilot weather report)

Closest report is Adelaide International Airport, 10.4 nm (19.3 km) SSW. Retrieved 2018/02/24 23:30 UTC (22 minutes ago):

YPAD 242330Z 13013KT 9999 FEW018 SCT025 BKN042 19/11 Q1015 NOSIG

TAF (pilot weather forecast)

Closest forecast is Adelaide International Airport, 10.4 nm (19.3 km) SSW. Retrieved 2018/02/24 18:00 UTC (6 hours ago):

TAF YPAD 241704Z 2418/2524 15012KT 9999 SCT030 FM250400 17014KT 9999 FEW045 FM251200 15008KT CAVOK